Terminal Aerodrome Forecast
Issued by NWS Goodland, KS

Home | Current Version | Previous Version | Text Only | Print | Product List | Glossary On
Versions: 1 2 3 4 5 6 7 8 9 10 11 12 13 14
000
FTUS43 KGLD 221757
TAFGLD
TAF
KGLD 221757Z 2218/2318 06017G25KT P6SM SCT120
     FM222000 08015G22KT P6SM -TSRA BKN050CB
      TEMPO 2222/2302 VRB25G50KT 3SM TSRA BKN035CB
     FM230300 18008KT P6SM VCTS BKN080CB
     FM230700 29010KT P6SM SCT015 SCT200=

USA.gov is the U.S. government's official web portal to all federal, state and local government web resources and services.